createdAt,value
2019-06-08T00:02:14.738Z,92.30
2019-06-08T00:04:41.553Z,92.20
2019-06-08T00:07:08.406Z,92.10
2019-06-08T00:09:35.068Z,92.30
2019-06-08T00:12:21.518Z,92.00
2019-06-08T00:14:48.154Z,92.10
2019-06-08T00:17:33.704Z,92.20
2019-06-08T00:19:43.380Z,92.30
2019-06-08T00:22:09.837Z,92.40
2019-06-08T00:24:36.339Z,92.30
2019-06-08T00:27:02.943Z,92.20
2019-06-08T00:29:29.401Z,92.40
2019-06-08T00:31:55.923Z,92.40
2019-06-08T00:34:22.718Z,92.50
2019-06-08T00:36:49.395Z,92.40
2019-06-08T00:39:16.755Z,92.60
2019-06-08T00:41:43.668Z,92.70
2019-06-08T00:44:10.202Z,92.90
2019-06-08T00:46:36.823Z,92.90
2019-06-08T00:49:03.492Z,93.10
2019-06-08T00:51:30.022Z,93.10
2019-06-08T00:53:56.639Z,93.20
2019-06-08T00:56:23.807Z,93.10
2019-06-08T00:58:50.558Z,93.00
2019-06-08T01:01:20.192Z,93.20
2019-06-08T01:03:45.557Z,93.20
2019-06-08T01:06:12.190Z,93.20
2019-06-08T01:08:39.060Z,93.20
2019-06-08T01:11:05.710Z,93.10
2019-06-08T01:13:32.142Z,93.20
2019-06-08T01:15:58.701Z,93.40
2019-06-08T01:18:25.876Z,93.60
2019-06-08T01:20:52.607Z,93.80
2019-06-08T01:23:19.540Z,93.90
2019-06-08T01:25:46.158Z,93.80
2019-06-08T01:28:12.808Z,93.80
2019-06-08T01:30:39.430Z,94.00
2019-06-08T01:33:05.956Z,94.00
2019-06-08T01:35:32.511Z,94.10
2019-06-08T01:37:59.127Z,94.00
2019-06-08T01:40:25.740Z,93.90
2019-06-08T01:42:52.400Z,93.90
2019-06-08T01:45:24.013Z,94.00
2019-06-08T01:47:50.469Z,93.90
2019-06-08T01:50:16.979Z,93.90
2019-06-08T01:52:43.386Z,93.90
2019-06-08T01:55:10.064Z,93.90
2019-06-08T01:57:36.459Z,94.00
2019-06-08T02:00:29.392Z,94.20
2019-06-08T02:02:37.860Z,94.50
2019-06-08T02:05:06.456Z,94.40
2019-06-08T02:07:33.082Z,94.50
2019-06-08T02:09:59.730Z,94.40
2019-06-08T02:12:26.736Z,94.50
2019-06-08T02:14:53.711Z,94.40
2019-06-08T02:17:20.371Z,95.10
2019-06-08T02:19:47.013Z,95.10
2019-06-08T02:22:13.527Z,95.10
2019-06-08T02:24:40.096Z,95.10
2019-06-08T02:27:06.708Z,95.10
2019-06-08T02:29:33.727Z,95.00
2019-06-08T02:32:00.821Z,95.20
2019-06-08T02:34:28.336Z,95.10
2019-06-08T02:36:55.455Z,95.00
2019-06-08T02:39:22.141Z,95.00
2019-06-08T02:41:48.654Z,95.00
2019-06-08T02:44:15.166Z,94.90
2019-06-08T02:46:41.733Z,94.90
2019-06-08T02:49:08.152Z,94.90
2019-06-08T02:51:36.434Z,94.60
2019-06-08T02:54:03.527Z,94.50
2019-06-08T02:56:33.931Z,94.50
2019-06-08T02:59:02.465Z,94.70
2019-06-08T03:01:33.691Z,94.70
2019-06-08T03:04:01.410Z,94.70
2019-06-08T03:06:30.358Z,94.90
2019-06-08T03:08:57.889Z,95.10
2019-06-08T03:11:25.023Z,95.00
2019-06-08T03:13:55.270Z,94.70
2019-06-08T03:16:21.753Z,94.50
2019-06-08T03:18:48.278Z,94.40
2019-06-08T03:21:14.695Z,94.40
2019-06-08T03:23:43.238Z,94.50
2019-06-08T03:26:09.602Z,94.50
2019-06-08T03:28:37.367Z,94.40
2019-06-08T03:31:04.568Z,94.30
2019-06-08T03:33:31.195Z,94.50
2019-06-08T03:35:58.680Z,94.40
2019-06-08T03:38:25.727Z,94.20
2019-06-08T03:40:52.156Z,94.40
2019-06-08T03:43:18.777Z,94.40
2019-06-08T03:45:45.471Z,94.30
2019-06-08T03:48:12.570Z,94.20
2019-06-08T03:50:40.262Z,94.30
2019-06-08T03:53:07.450Z,94.30
2019-06-08T03:55:35.380Z,94.50
2019-06-08T03:58:02.315Z,94.60
2019-06-08T04:00:28.904Z,94.70
2019-06-08T04:02:55.297Z,94.50
2019-06-08T04:05:21.947Z,94.30
2019-06-08T04:07:50.494Z,94.20
2019-06-08T04:10:17.661Z,94.20
2019-06-08T04:12:44.802Z,94.10
2019-06-08T04:15:13.164Z,94.00
2019-06-08T04:17:40.005Z,93.80
2019-06-08T04:20:11.411Z,93.90
2019-06-08T04:22:40.389Z,93.90
2019-06-08T04:25:07.054Z,94.00
2019-06-08T04:27:33.655Z,94.00
2019-06-08T04:30:00.790Z,94.30
2019-06-08T04:32:27.385Z,94.20
2019-06-08T04:34:54.042Z,94.00
2019-06-08T04:37:20.488Z,94.00
2019-06-08T04:39:47.125Z,94.00
2019-06-08T04:42:13.594Z,94.00
2019-06-08T04:44:40.494Z,93.90
2019-06-08T04:47:07.380Z,93.90
2019-06-08T04:49:33.949Z,94.00
2019-06-08T04:52:00.357Z,93.80
2019-06-08T04:54:26.968Z,94.00
2019-06-08T04:56:56.351Z,93.90
2019-06-08T04:59:22.881Z,94.00
2019-06-08T05:01:49.612Z,94.10
2019-06-08T05:04:16.119Z,93.80
2019-06-08T05:06:43.001Z,93.90
2019-06-08T05:09:09.702Z,93.70
2019-06-08T05:11:36.522Z,93.60
2019-06-08T05:14:03.871Z,93.60
2019-06-08T05:16:30.310Z,93.50
2019-06-08T05:18:56.817Z,93.50
2019-06-08T05:21:23.515Z,93.40
2019-06-08T05:23:58.327Z,93.60
2019-06-08T05:26:18.251Z,93.50
2019-06-08T05:28:45.263Z,93.70
2019-06-08T05:31:11.826Z,93.70
2019-06-08T05:33:39.218Z,93.40
2019-06-08T05:36:05.880Z,93.50
2019-06-08T05:38:32.392Z,93.50
2019-06-08T05:40:59.043Z,93.40
2019-06-08T05:43:25.458Z,93.40
2019-06-08T05:45:52.125Z,93.20
2019-06-08T05:48:18.628Z,93.30
2019-06-08T05:51:00.450Z,93.50
2019-06-08T05:53:13.634Z,93.30
2019-06-08T05:55:41.687Z,93.00
2019-06-08T05:58:08.533Z,92.90
2019-06-08T06:00:34.959Z,92.80
2019-06-08T06:03:01.580Z,93.00
2019-06-08T06:05:27.985Z,92.80
2019-06-08T06:07:54.771Z,92.50
2019-06-08T06:10:21.389Z,92.70
2019-06-08T06:12:49.049Z,92.80
2019-06-08T06:15:17.118Z,92.50
2019-06-08T06:17:44.315Z,92.50
2019-06-08T06:20:12.170Z,92.40
2019-06-08T06:22:38.722Z,91.90
2019-06-08T06:25:09.234Z,92.30
2019-06-08T06:27:35.743Z,92.30
2019-06-08T06:30:07.070Z,92.30
2019-06-08T06:32:33.698Z,92.30
2019-06-08T06:35:00.427Z,92.20
2019-06-08T06:37:26.987Z,91.70
2019-06-08T06:39:55.414Z,91.70
2019-06-08T06:42:24.754Z,91.20
2019-06-08T06:44:50.605Z,91.40
2019-06-08T06:47:17.536Z,91.30
2019-06-08T06:49:44.530Z,91.20
2019-06-08T06:52:11.514Z,91.10
2019-06-08T06:54:37.942Z,90.60
2019-06-08T06:57:04.580Z,90.80
2019-06-08T06:59:31.136Z,91.10
2019-06-08T07:01:58.136Z,90.90
2019-06-08T07:04:24.758Z,90.90
2019-06-08T07:06:52.262Z,90.80
2019-06-08T07:09:19.715Z,90.50
2019-06-08T07:11:46.843Z,90.50
2019-06-08T07:14:13.716Z,90.50
2019-06-08T07:16:40.152Z,90.30
2019-06-08T07:19:06.711Z,90.10
2019-06-08T07:21:41.629Z,89.80
2019-06-08T07:24:01.559Z,90.10
2019-06-08T07:26:28.948Z,89.90
2019-06-08T07:28:55.474Z,89.30
2019-06-08T07:31:21.986Z,88.90
2019-06-08T07:33:50.090Z,87.30
2019-06-08T07:36:17.030Z,87.20
2019-06-08T07:38:43.938Z,86.60
2019-06-08T07:41:10.443Z,87.30
2019-06-08T07:43:37.082Z,87.20
2019-06-08T07:46:03.619Z,84.20
2019-06-08T07:48:30.125Z,81.80
2019-06-08T07:50:56.643Z,81.80
2019-06-08T07:53:24.374Z,80.20
2019-06-08T07:55:51.543Z,80.10
2019-06-08T07:58:18.470Z,80.60
2019-06-08T08:00:45.101Z,80.20
2019-06-08T08:03:11.798Z,81.00
2019-06-08T08:05:38.434Z,79.60
2019-06-08T08:08:05.070Z,77.20
2019-06-08T08:10:32.245Z,77.40
2019-06-08T08:12:58.993Z,76.70
2019-06-08T08:15:25.810Z,77.50
2019-06-08T08:17:53.814Z,77.90
2019-06-08T08:20:20.914Z,76.80
2019-06-08T08:22:49.218Z,75.70
2019-06-08T08:25:18.079Z,75.50
2019-06-08T08:27:44.217Z,75.00
2019-06-08T08:30:11.924Z,75.40
2019-06-08T08:32:38.379Z,75.60
2019-06-08T08:35:08.588Z,75.50
2019-06-08T08:37:34.898Z,74.60
2019-06-08T08:40:01.658Z,75.30
2019-06-08T08:42:30.139Z,75.40
2019-06-08T08:45:02.700Z,76.00
2019-06-08T08:47:27.759Z,76.10
2019-06-08T08:49:54.338Z,76.30
2019-06-08T08:52:33.720Z,75.70
2019-06-08T08:54:50.746Z,75.80
2019-06-08T08:57:18.228Z,76.10
2019-06-08T08:59:50.143Z,76.70
2019-06-08T09:02:13.461Z,77.80
2019-06-08T09:04:40.079Z,77.30
2019-06-08T09:07:09.442Z,77.90
2019-06-08T09:09:35.047Z,78.70
2019-06-08T09:12:04.320Z,79.90
2019-06-08T09:14:30.421Z,81.20
2019-06-08T09:16:59.805Z,81.30
2019-06-08T09:19:27.915Z,80.50
2019-06-08T09:21:54.041Z,79.90
2019-06-08T09:24:20.678Z,79.20
2019-06-08T09:26:47.897Z,78.90
2019-06-08T09:29:14.622Z,78.00
2019-06-08T09:31:41.344Z,77.40
2019-06-08T09:34:12.116Z,76.50
2019-06-08T09:36:37.642Z,76.60
2019-06-08T09:39:11.255Z,75.20
2019-06-08T09:41:37.902Z,72.20
2019-06-08T09:44:05.764Z,72.30
2019-06-08T09:46:32.450Z,70.00
2019-06-08T09:49:05.898Z,69.70
2019-06-08T09:51:28.576Z,68.30
2019-06-08T09:53:56.127Z,68.90
2019-06-08T09:56:23.748Z,68.70
2019-06-08T09:58:51.416Z,69.20
2019-06-08T10:01:18.543Z,68.90
2019-06-08T10:03:48.064Z,67.50
2019-06-08T10:06:13.603Z,68.70
2019-06-08T10:08:40.226Z,67.00
2019-06-08T10:11:09.401Z,66.80
2019-06-08T10:13:35.257Z,64.40
2019-06-08T10:16:05.359Z,64.80
2019-06-08T10:18:30.283Z,66.00
2019-06-08T10:20:59.585Z,68.20
2019-06-08T10:23:31.861Z,69.00
2019-06-08T10:25:54.805Z,69.80
2019-06-08T10:28:22.025Z,68.90
2019-06-08T10:30:49.021Z,68.60
2019-06-08T10:33:18.275Z,68.10
2019-06-08T10:35:44.037Z,66.80
2019-06-08T10:38:11.967Z,66.60
2019-06-08T10:41:04.870Z,67.60
2019-06-08T10:43:28.714Z,68.20
2019-06-08T10:45:54.132Z,68.70
2019-06-08T10:48:20.765Z,68.90
2019-06-08T10:50:47.532Z,69.50
2019-06-08T10:53:16.512Z,67.40
2019-06-08T10:55:43.017Z,66.50
2019-06-08T10:58:11.279Z,66.90
2019-06-08T11:00:38.880Z,66.70
2019-06-08T11:03:09.716Z,68.40
2019-06-08T11:05:34.318Z,66.00
2019-06-08T11:08:02.541Z,67.00
2019-06-08T11:10:29.363Z,68.10
2019-06-08T11:12:58.282Z,68.70
2019-06-08T11:15:29.309Z,68.80
2019-06-08T11:17:53.659Z,68.50
2019-06-08T11:20:20.344Z,65.50
2019-06-08T11:22:49.792Z,65.70
2019-06-08T11:25:19.542Z,67.30
2019-06-08T11:27:44.333Z,68.40
2019-06-08T11:30:20.536Z,70.00
2019-06-08T11:32:41.467Z,70.10
2019-06-08T11:35:11.079Z,69.90
2019-06-08T11:37:38.705Z,69.20
2019-06-08T11:40:09.460Z,68.70
2019-06-08T11:42:35.026Z,67.10
2019-06-08T11:45:04.537Z,66.90
2019-06-08T11:47:31.360Z,66.10
2019-06-08T11:49:58.436Z,65.90
2019-06-08T11:52:25.880Z,64.80
2019-06-08T11:54:53.409Z,64.60
2019-06-08T11:57:21.302Z,65.40
2019-06-08T11:59:49.283Z,64.60
2019-06-08T12:02:18.336Z,63.80
2019-06-08T12:04:44.367Z,63.70
2019-06-08T12:07:12.363Z,62.10
2019-06-08T12:09:40.377Z,60.60
2019-06-08T12:12:12.234Z,61.90
2019-06-08T12:14:37.678Z,63.10
2019-06-08T12:17:05.106Z,62.00
2019-06-08T12:19:32.037Z,61.60
2019-06-08T12:21:58.705Z,61.60
2019-06-08T12:24:38.484Z,61.40
2019-06-08T12:27:00.281Z,60.90
2019-06-08T12:29:22.326Z,61.60
2019-06-08T12:31:48.791Z,61.00
2019-06-08T12:34:16.221Z,61.20
2019-06-08T12:36:43.611Z,61.90
2019-06-08T12:39:10.215Z,62.00
2019-06-08T12:41:37.747Z,63.40
2019-06-08T12:44:04.577Z,63.40
2019-06-08T12:46:31.839Z,63.50
2019-06-08T12:48:58.495Z,63.40
2019-06-08T12:51:25.010Z,63.60
2019-06-08T12:53:51.539Z,64.00
2019-06-08T12:56:22.120Z,60.30
2019-06-08T12:58:47.649Z,59.70
2019-06-08T13:01:14.599Z,59.00
2019-06-08T13:03:41.472Z,58.90
2019-06-08T13:06:09.649Z,56.90
2019-06-08T13:08:36.429Z,56.50
2019-06-08T13:11:03.077Z,54.10
2019-06-08T13:13:29.738Z,52.20
2019-06-08T13:15:58.045Z,50.70
2019-06-08T13:18:24.571Z,50.10
2019-06-08T13:20:51.818Z,49.50
2019-06-08T13:23:21.208Z,49.50
2019-06-08T13:25:48.520Z,50.40
2019-06-08T13:28:19.204Z,49.70
2019-06-08T13:30:44.130Z,50.60
2019-06-08T13:33:10.594Z,50.30
2019-06-08T13:35:39.521Z,50.40
2019-06-08T13:38:05.552Z,50.10
2019-06-08T13:40:32.334Z,49.30
2019-06-08T13:42:59.053Z,45.00
2019-06-08T13:45:27.833Z,44.60
2019-06-08T13:47:54.725Z,45.60
2019-06-08T13:50:22.670Z,44.60
2019-06-08T13:52:49.787Z,47.00
2019-06-08T13:55:36.029Z,49.40
2019-06-08T13:57:45.755Z,50.50
2019-06-08T14:00:13.438Z,49.40
2019-06-08T14:02:40.051Z,49.30
2019-06-08T14:05:08.282Z,50.20
2019-06-08T14:07:37.867Z,50.40
2019-06-08T14:10:06.126Z,50.00
2019-06-08T14:12:32.921Z,48.70
2019-06-08T14:14:59.574Z,49.00
2019-06-08T14:17:27.143Z,49.30
2019-06-08T14:19:54.099Z,50.00
2019-06-08T14:22:23.011Z,48.70
2019-06-08T14:24:49.106Z,48.40
2019-06-08T14:27:16.893Z,49.30
2019-06-08T14:29:44.103Z,49.70
2019-06-08T14:32:10.657Z,50.40
2019-06-08T14:34:38.639Z,51.30
2019-06-08T14:37:05.624Z,50.30
2019-06-08T14:39:34.724Z,50.20
2019-06-08T14:42:01.283Z,50.40
2019-06-08T14:44:28.743Z,49.20
2019-06-08T14:46:57.917Z,50.80
2019-06-08T14:49:29.451Z,50.60
2019-06-08T14:51:52.963Z,50.90
2019-06-08T14:54:24.384Z,50.00
2019-06-08T14:56:48.164Z,50.40
2019-06-08T14:59:14.864Z,49.90
2019-06-08T15:01:41.981Z,51.30
2019-06-08T15:04:08.991Z,51.10
2019-06-08T15:06:38.216Z,51.70
2019-06-08T15:09:08.648Z,52.20
2019-06-08T15:11:35.328Z,53.00
2019-06-08T15:14:02.147Z,53.50
2019-06-08T15:16:31.109Z,53.60
2019-06-08T15:19:00.148Z,53.90
2019-06-08T15:21:29.513Z,54.00
2019-06-08T15:23:54.523Z,54.80
2019-06-08T15:26:29.972Z,54.90
2019-06-08T15:28:49.578Z,54.60
2019-06-08T15:31:18.108Z,55.10
2019-06-08T15:33:44.657Z,54.80
2019-06-08T15:36:11.154Z,55.40
2019-06-08T15:38:38.135Z,55.10
2019-06-08T15:41:05.101Z,55.20
2019-06-08T15:43:36.652Z,55.40
2019-06-08T15:46:00.559Z,55.50
2019-06-08T15:48:29.331Z,55.90
2019-06-08T15:50:58.220Z,55.00
2019-06-08T15:53:24.360Z,55.80
2019-06-08T15:55:51.542Z,55.20
2019-06-08T15:58:18.436Z,55.20
2019-06-08T16:00:45.270Z,55.10
2019-06-08T16:03:11.913Z,54.80
2019-06-08T16:05:38.870Z,54.30
2019-06-08T16:08:05.429Z,55.10
2019-06-08T16:10:32.334Z,54.60
2019-06-08T16:12:59.305Z,54.20
2019-06-08T16:15:26.866Z,54.80
2019-06-08T16:17:53.647Z,54.60
2019-06-08T16:20:20.275Z,54.60
2019-06-08T16:22:46.888Z,54.90
2019-06-08T16:25:13.657Z,54.80
2019-06-08T16:27:40.906Z,54.50
2019-06-08T16:30:09.614Z,54.40
2019-06-08T16:32:35.882Z,54.50
2019-06-08T16:35:04.684Z,54.20
2019-06-08T16:37:31.659Z,54.10
2019-06-08T16:39:58.758Z,54.00
2019-06-08T16:42:25.222Z,55.10
2019-06-08T16:44:51.863Z,56.00
2019-06-08T16:47:18.511Z,55.50
2019-06-08T16:49:45.135Z,54.20
2019-06-08T16:52:11.769Z,53.70
2019-06-08T16:54:38.972Z,54.00
2019-06-08T16:57:10.705Z,54.20
2019-06-08T16:59:34.770Z,54.80
2019-06-08T17:02:01.369Z,54.20
2019-06-08T17:04:28.826Z,53.60
2019-06-08T17:06:55.795Z,53.80
2019-06-08T17:09:22.333Z,53.60
2019-06-08T17:11:50.415Z,53.70
2019-06-08T17:14:17.436Z,53.50
2019-06-08T17:16:44.089Z,54.00
2019-06-08T17:19:10.701Z,54.20
2019-06-08T17:21:38.465Z,54.70
2019-06-08T17:24:05.369Z,54.60
2019-06-08T17:26:32.613Z,55.00
2019-06-08T17:28:59.677Z,55.20
2019-06-08T17:31:26.630Z,55.10
2019-06-08T17:33:53.457Z,55.70
2019-06-08T17:36:20.352Z,55.50
2019-06-08T17:38:46.886Z,55.60
2019-06-08T17:41:14.286Z,55.90
2019-06-08T17:43:42.506Z,56.40
2019-06-08T17:46:17.503Z,56.60
2019-06-08T17:48:44.897Z,57.10
2019-06-08T17:51:11.620Z,57.10
2019-06-08T17:53:40.902Z,57.50
2019-06-08T17:56:07.189Z,57.70
2019-06-08T17:58:33.702Z,52.70
2019-06-08T18:01:00.427Z,48.00
2019-06-08T18:03:27.887Z,45.50
2019-06-08T18:05:54.953Z,45.60
2019-06-08T18:08:25.141Z,43.80
2019-06-08T18:10:50.290Z,43.70
2019-06-08T18:13:18.433Z,43.70
2019-06-08T18:15:46.028Z,43.20
2019-06-08T18:18:13.956Z,43.80
2019-06-08T18:20:42.458Z,43.60
2019-06-08T18:23:09.315Z,43.90
2019-06-08T18:25:38.723Z,44.10
2019-06-08T18:28:10.252Z,44.40
2019-06-08T18:30:34.502Z,44.30
2019-06-08T18:33:01.253Z,45.10
2019-06-08T18:35:28.105Z,45.60
2019-06-08T18:37:54.617Z,44.90
2019-06-08T18:40:21.769Z,45.40
2019-06-08T18:42:48.857Z,45.10
2019-06-08T18:45:18.153Z,45.70
2019-06-08T18:47:45.492Z,45.60
2019-06-08T18:50:12.547Z,45.00
2019-06-08T18:52:41.842Z,45.00
2019-06-08T18:55:08.305Z,45.40
2019-06-08T18:57:35.483Z,44.60
2019-06-08T19:00:08.475Z,44.80
2019-06-08T19:02:33.118Z,45.00
2019-06-08T19:04:59.784Z,44.90
2019-06-08T19:07:28.289Z,45.40
2019-06-08T19:09:57.835Z,45.00
2019-06-08T19:12:24.880Z,44.80
2019-06-08T19:14:52.489Z,45.00
2019-06-08T19:17:19.527Z,45.30
2019-06-08T19:19:48.518Z,45.30
2019-06-08T19:22:14.936Z,45.60
2019-06-08T19:24:43.793Z,46.00
2019-06-08T19:27:09.945Z,45.90
2019-06-08T19:29:39.419Z,46.30
2019-06-08T19:32:07.290Z,46.60
2019-06-08T19:34:33.599Z,46.80
2019-06-08T19:37:00.428Z,47.20
2019-06-08T19:39:28.296Z,47.60
2019-06-08T19:41:57.224Z,48.20
2019-06-08T19:44:24.362Z,48.30
2019-06-08T19:46:53.143Z,48.80
2019-06-08T19:49:19.398Z,49.20
2019-06-08T19:51:49.384Z,49.70
2019-06-08T19:54:14.233Z,49.90
2019-06-08T19:56:41.885Z,50.30
2019-06-08T19:59:09.234Z,50.30
2019-06-08T20:01:37.812Z,50.50
2019-06-08T20:04:04.117Z,50.90
2019-06-08T20:06:30.835Z,50.70
2019-06-08T20:08:57.653Z,50.80
2019-06-08T20:11:24.712Z,51.20
2019-06-08T20:13:51.766Z,51.40
2019-06-08T20:16:18.548Z,51.40
2019-06-08T20:18:46.250Z,51.70
2019-06-08T20:21:13.806Z,51.70
2019-06-08T20:23:41.120Z,51.80
2019-06-08T20:26:08.491Z,52.20
2019-06-08T20:28:37.296Z,52.30
2019-06-08T20:31:03.983Z,52.00
2019-06-08T20:33:30.546Z,52.30
2019-06-08T20:35:58.546Z,52.10
2019-06-08T20:38:35.085Z,52.30
2019-06-08T20:40:53.585Z,52.00
2019-06-08T20:43:20.119Z,52.10
2019-06-08T20:45:49.186Z,52.50
2019-06-08T20:48:17.703Z,52.80
2019-06-08T20:50:44.329Z,53.20
2019-06-08T20:53:11.092Z,53.20
2019-06-08T20:55:40.555Z,53.30
2019-06-08T20:58:08.067Z,53.10
2019-06-08T21:00:34.934Z,53.40
2019-06-08T21:03:02.937Z,53.50
2019-06-08T21:05:29.805Z,53.90
2019-06-08T21:07:59.037Z,54.20
2019-06-08T21:10:28.193Z,54.20
2019-06-08T21:12:56.420Z,54.30
2019-06-08T21:15:23.156Z,54.30
2019-06-08T21:17:51.098Z,54.40
2019-06-08T21:20:18.171Z,54.40
2019-06-08T21:22:44.963Z,54.80
2019-06-08T21:25:12.767Z,54.50
2019-06-08T21:27:39.307Z,55.10
2019-06-08T21:30:18.837Z,55.30
2019-06-08T21:32:37.116Z,55.20
2019-06-08T21:35:07.495Z,55.50
2019-06-08T21:37:33.525Z,55.60
2019-06-08T21:40:03.643Z,55.90
2019-06-08T21:42:28.525Z,56.20
2019-06-08T21:44:59.400Z,55.90
2019-06-08T21:47:23.617Z,56.10
2019-06-08T21:49:51.376Z,56.20
2019-06-08T21:52:18.690Z,56.10
2019-06-08T21:54:45.334Z,56.20
2019-06-08T21:57:12.062Z,56.40
2019-06-08T21:59:38.608Z,56.60
2019-06-08T22:02:08.143Z,56.70
2019-06-08T22:04:37.219Z,57.30
2019-06-08T22:07:03.785Z,57.10
2019-06-08T22:09:30.429Z,56.90
2019-06-08T22:11:59.194Z,57.10
2019-06-08T22:14:27.314Z,57.50
2019-06-08T22:16:55.128Z,56.90
2019-06-08T22:19:22.126Z,57.40
2019-06-08T22:21:48.679Z,57.60
2019-06-08T22:24:17.153Z,57.50
2019-06-08T22:26:43.694Z,57.50
2019-06-08T22:29:10.331Z,57.90
2019-06-08T22:31:37.647Z,58.20
2019-06-08T22:34:04.564Z,58.40
2019-06-08T22:36:31.097Z,58.40
2019-06-08T22:39:00.596Z,58.50
2019-06-08T22:41:28.016Z,58.70
2019-06-08T22:43:55.719Z,58.80
2019-06-08T22:46:22.899Z,58.40
2019-06-08T22:48:49.431Z,58.60
2019-06-08T22:51:18.214Z,59.00
2019-06-08T22:53:44.265Z,59.10
2019-06-08T22:56:10.895Z,58.90
2019-06-08T22:58:37.460Z,58.90
2019-06-08T23:01:11.142Z,59.00
2019-06-08T23:03:34.960Z,59.30
2019-06-08T23:06:02.798Z,59.70
2019-06-08T23:08:29.753Z,59.70
2019-06-08T23:10:58.906Z,60.00
2019-06-08T23:13:24.636Z,60.00
2019-06-08T23:15:51.264Z,60.00
2019-06-08T23:18:18.147Z,60.10
2019-06-08T23:20:44.966Z,60.40
2019-06-08T23:23:11.515Z,60.80
2019-06-08T23:25:39.781Z,61.30
2019-06-08T23:28:09.714Z,61.70
2019-06-08T23:30:35.299Z,62.20
2019-06-08T23:33:04.232Z,62.40
2019-06-08T23:35:46.910Z,62.50
2019-06-08T23:37:58.834Z,62.90
2019-06-08T23:40:27.259Z,63.70
2019-06-08T23:42:54.052Z,63.60
2019-06-08T23:45:20.657Z,64.00
2019-06-08T23:47:48.176Z,64.30
2019-06-08T23:50:17.762Z,65.10
2019-06-08T23:52:44.296Z,65.00
2019-06-08T23:55:11.981Z,65.10
2019-06-08T23:57:39.015Z,65.60
